Time;durP1;ratioP1;P1;durP2;ratioP2;P2;SDS_P1;SDS_P2;PMS_P1;PMS_P2;Temp;Humidity;BMP_temperature;BMP_pressure;BME280_temperature;BME280_humidity;BME280_pressure;Samples;Min_cycle;Max_cycle;Signal;HPM_P1;HPM_P2
2020/12/16 00:01:35;;;;;;;24.85;10.57;;;8.40;99.90;;;9.04;90.74;101139.84;5071403;28;20586;-70
2020/12/16 00:04:02;;;;;;;26.23;11.25;;;8.40;99.90;;;9.06;90.38;101145.88;5071300;28;20530;-68
2020/12/16 00:06:28;;;;;;;25.13;10.57;;;8.50;99.90;;;9.04;90.80;101145.06;5065927;28;20197;-68
2020/12/16 00:08:55;;;;;;;25.42;10.57;;;8.50;99.90;;;9.09;90.96;101151.03;5069526;28;20195;-68
2020/12/16 00:11:21;;;;;;;24.20;10.50;;;8.50;99.90;;;9.10;90.61;101149.25;5071395;28;20696;-69
2020/12/16 00:13:48;;;;;;;25.77;10.82;;;8.50;99.90;;;9.09;90.52;101161.47;5087195;28;20192;-67
2020/12/16 00:16:14;;;;;;;26.08;10.23;;;8.50;99.90;;;9.09;90.54;101165.84;5070034;28;20649;-69
2020/12/16 00:18:40;;;;;;;28.35;11.40;;;8.50;99.90;;;9.08;90.94;101172.78;5070879;28;20530;-69
2020/12/16 00:21:07;;;;;;;25.42;10.65;;;8.50;99.90;;;9.08;90.69;101179.75;5070548;28;20566;-67
2020/12/16 00:23:33;;;;;;;22.85;10.43;;;8.50;99.90;;;9.07;90.81;101181.53;5071017;28;20789;-68
2020/12/16 00:26:00;;;;;;;23.17;10.73;;;8.50;99.90;;;9.11;90.58;101179.72;5071390;28;20230;-68
2020/12/16 00:28:26;;;;;;;21.20;9.80;;;8.50;99.90;;;9.14;90.64;101180.50;5070972;28;20184;-68
2020/12/16 00:30:52;;;;;;;24.67;9.90;;;8.50;99.90;;;9.14;90.60;101188.34;5069844;28;20587;-69
2020/12/16 00:33:19;;;;;;;23.27;9.90;;;8.60;99.90;;;9.08;90.71;101178.03;5086485;28;20652;-68
2020/12/16 00:35:46;;;;;;;21.88;10.50;;;8.60;99.90;;;9.08;90.85;101185.84;5071187;28;20184;-68
2020/12/16 00:38:14;;;;;;;22.27;10.65;;;8.50;99.90;;;9.09;90.95;101187.59;5070590;28;20188;-68
2020/12/16 00:40:40;;;;;;;23.50;10.73;;;8.50;99.90;;;9.13;90.97;101196.16;5071047;28;20212;-68
2020/12/16 00:43:07;;;;;;;23.70;10.18;;;8.50;99.90;;;9.16;90.70;101196.13;5069893;28;20555;-67
2020/12/16 00:45:33;;;;;;;23.98;10.45;;;8.60;99.90;;;9.16;90.74;101199.56;5071195;28;20726;-68
2020/12/16 00:47:59;;;;;;;25.50;10.68;;;8.60;99.90;;;9.17;90.73;101211.75;5069553;28;20196;-68
2020/12/16 00:50:27;;;;;;;26.45;11.30;;;8.60;99.90;;;9.20;91.08;101209.06;5086580;28;20259;-67
2020/12/16 00:53:02;;;;;;;25.88;10.75;;;8.60;99.90;;;9.21;90.69;101220.38;5086486;28;20195;-69
2020/12/16 00:55:34;;;;;;;23.17;10.25;;;8.70;99.90;;;9.22;90.71;101224.69;5086664;28;20202;-69
2020/12/16 00:58:01;;;;;;;23.40;10.30;;;8.60;99.90;;;9.24;90.95;101229.00;5086650;28;20192;-67
2020/12/16 01:00:28;;;;;;;23.45;10.75;;;8.70;99.90;;;9.23;90.76;101227.25;5070726;28;20208;-69
2020/12/16 01:03:01;;;;;;;26.25;10.50;;;8.70;99.90;;;9.23;90.75;101232.47;5069882;28;20184;-67
2020/12/16 01:05:30;;;;;;;26.60;11.27;;;8.70;99.90;;;9.23;90.79;101242.06;5070840;28;20176;-68
2020/12/16 01:07:57;;;;;;;25.70;10.95;;;8.70;99.90;;;9.22;90.85;101238.59;5085400;28;20720;-68
2020/12/16 01:10:23;;;;;;;26.92;10.65;;;8.70;99.90;;;9.22;90.63;101245.56;5086370;28;20204;-67
2020/12/16 01:12:51;;;;;;;23.48;10.43;;;8.70;99.90;;;9.24;91.08;101243.78;5069802;28;20199;-66
2020/12/16 01:15:21;;;;;;;21.00;10.00;;;8.70;99.90;;;9.23;90.86;101253.38;5069386;28;20200;-68
2020/12/16 01:17:53;;;;;;;21.20;9.85;;;8.70;99.90;;;9.24;90.81;101254.22;5086465;28;20694;-68
2020/12/16 01:20:27;;;;;;;23.52;10.27;;;8.70;99.90;;;9.24;90.94;101260.31;5070466;28;20222;-68
2020/12/16 01:22:53;;;;;;;26.20;10.95;;;8.70;99.90;;;9.24;90.91;101265.56;5071029;28;20267;-68
2020/12/16 01:25:21;;;;;;;24.30;9.95;;;8.70;99.90;;;9.23;90.92;101260.34;5069509;28;20184;-68
2020/12/16 01:27:53;;;;;;;22.92;9.80;;;8.70;99.90;;;9.22;90.87;101262.09;5086440;28;20196;-69
2020/12/16 01:30:20;;;;;;;23.58;10.27;;;8.70;99.90;;;9.25;90.90;101267.25;5065511;28;20682;-69
2020/12/16 01:32:46;;;;;;;24.02;10.73;;;8.70;99.90;;;9.26;91.03;101263.72;5068615;28;20729;-68
2020/12/16 01:35:13;;;;;;;24.05;11.02;;;8.70;99.90;;;9.27;91.18;101265.47;5073411;28;20200;-68
2020/12/16 01:37:40;;;;;;;24.83;10.63;;;8.80;99.90;;;9.28;90.87;101269.78;5090025;28;20196;-69
2020/12/16 01:40:09;;;;;;;22.65;9.75;;;8.80;99.90;;;9.30;90.96;101275.84;5074109;28;20217;-69
2020/12/16 01:42:39;;;;;;;22.70;10.13;;;8.80;99.90;;;9.33;91.08;101275.75;5073253;28;20188;-67
2020/12/16 01:45:09;;;;;;;23.23;9.80;;;8.80;99.90;;;9.34;90.96;101271.41;5072992;28;20191;-68
2020/12/16 01:47:37;;;;;;;22.50;9.55;;;8.80;99.90;;;9.35;90.89;101275.72;5073048;28;20715;-68
2020/12/16 01:50:12;;;;;;;23.88;10.18;;;8.80;99.90;;;9.35;90.96;101276.59;5072756;28;20200;-69
2020/12/16 01:52:41;;;;;;;25.60;10.75;;;8.80;99.90;;;9.38;90.87;101276.50;5072075;28;20283;-70
2020/12/16 01:55:10;;;;;;;23.60;10.13;;;8.90;99.90;;;9.40;91.08;101282.56;5053044;28;20311;-68
2020/12/16 01:57:46;;;;;;;26.52;11.38;;;8.80;99.90;;;9.40;90.87;101279.09;5069582;28;20192;-68
2020/12/16 02:00:24;;;;;;;23.23;10.13;;;8.90;99.90;;;9.39;90.65;101278.25;5069161;28;20220;-69
2020/12/16 02:02:58;;;;;;;22.23;9.57;;;8.90;99.90;;;9.40;91.00;101273.84;5069591;28;20185;-68
2020/12/16 02:05:39;;;;;;;21.23;9.10;;;8.90;99.90;;;9.40;90.87;101286.91;5086337;28;20192;-68
2020/12/16 02:08:12;;;;;;;24.27;9.95;;;8.90;99.90;;;9.40;90.77;101289.53;5097310;28;20695;-68
2020/12/16 02:10:41;;;;;;;23.23;10.18;;;8.90;99.90;;;9.42;91.05;101295.59;5076351;28;20637;-69
2020/12/16 02:13:08;;;;;;;23.20;9.57;;;8.90;99.90;;;9.43;91.05;101297.28;5089879;28;20196;-68
2020/12/16 02:15:41;;;;;;;22.95;9.77;;;8.90;99.90;;;9.45;91.16;101296.38;5079974;28;20188;-68
2020/12/16 02:18:09;;;;;;;23.92;10.40;;;9.00;99.90;;;9.49;90.71;101298.03;5081116;28;20211;-69
2020/12/16 02:20:36;;;;;;;23.13;9.73;;;9.00;99.90;;;9.50;90.77;101304.97;5073873;28;20311;-68
2020/12/16 02:23:17;;;;;;;24.20;9.93;;;9.00;99.90;;;9.49;90.78;101300.66;5089202;28;20772;-68
2020/12/16 02:25:46;;;;;;;24.30;10.30;;;9.00;99.90;;;9.50;90.94;101307.56;5089613;28;20188;-68
2020/12/16 02:28:12;;;;;;;24.45;10.93;;;8.90;99.90;;;9.52;90.92;101304.91;5090042;28;20612;-68
2020/12/16 02:30:43;;;;;;;24.55;10.50;;;9.00;99.90;;;9.52;90.89;101308.41;5073026;28;20224;-67
2020/12/16 02:33:38;;;;;;;25.02;10.48;;;9.00;99.90;;;9.56;90.96;101314.41;5061943;28;20619;-68
2020/12/16 02:36:15;;;;;;;23.65;10.10;;;9.00;99.90;;;9.54;90.63;101310.97;5089078;28;20603;-68
2020/12/16 02:38:51;;;;;;;25.10;10.73;;;9.00;99.90;;;9.52;91.06;101316.25;5071352;28;20191;-69
2020/12/16 02:41:22;;;;;;;24.92;10.80;;;9.00;99.90;;;9.52;91.02;101316.25;5073110;28;20241;-68
2020/12/16 02:43:50;;;;;;;24.77;10.05;;;9.00;99.90;;;9.50;91.13;101314.53;5071787;28;20199;-68
2020/12/16 02:46:18;;;;;;;23.48;10.27;;;9.00;99.90;;;9.48;91.11;101324.16;5088687;28;20196;-68
2020/12/16 02:48:44;;;;;;;25.05;10.80;;;9.00;99.90;;;9.48;91.02;101319.81;5072823;28;20744;-67
2020/12/16 02:51:11;;;;;;;23.35;10.75;;;9.00;99.90;;;9.48;91.15;101334.59;5072796;28;20211;-68
2020/12/16 02:53:38;;;;;;;27.30;10.77;;;9.00;99.90;;;9.49;91.61;101328.50;5087017;28;20278;-69
2020/12/16 02:56:26;;;;;;;25.08;10.35;;;9.00;99.90;;;9.48;91.30;101326.78;5067913;28;20208;-68
2020/12/16 02:58:59;;;;;;;30.13;11.13;;;9.00;99.90;;;9.49;91.45;101332.00;5051188;28;20257;-68
2020/12/16 03:01:27;;;;;;;29.23;11.52;;;9.00;99.90;;;9.50;91.43;101331.09;5051472;28;20285;-71
2020/12/16 03:04:03;;;;;;;30.88;11.88;;;9.00;99.90;;;9.51;91.43;101335.41;5052887;28;20216;-68
2020/12/16 03:06:48;;;;;;;26.75;11.27;;;9.00;99.90;;;9.53;91.91;101336.22;5052857;28;20199;-68
2020/12/16 03:09:18;;;;;;;27.50;11.75;;;9.00;99.90;;;9.55;91.87;101331.84;5065167;28;20183;-68
2020/12/16 03:11:52;;;;;;;26.50;11.02;;;9.00;99.90;;;9.54;91.85;101343.19;5087797;28;20299;-68
2020/12/16 03:14:23;;;;;;;29.38;11.75;;;9.00;99.90;;;9.55;92.20;101349.25;5087909;28;20192;-67
2020/12/16 03:16:50;;;;;;;29.83;12.50;;;9.00;99.90;;;9.55;92.17;101347.50;5087817;28;20199;-69
2020/12/16 03:19:22;;;;;;;26.92;11.30;;;9.00;99.90;;;9.55;92.40;101347.50;5070655;28;20216;-69
2020/12/16 03:21:49;;;;;;;31.38;11.63;;;9.00;99.90;;;9.56;92.55;101351.00;5072134;28;20223;-68
2020/12/16 03:24:21;;;;;;;29.42;12.38;;;9.00;99.90;;;9.57;92.43;101347.47;5070761;28;20238;-69
2020/12/16 03:27:00;;;;;;;32.00;12.35;;;9.00;99.90;;;9.56;92.83;101357.06;5087642;28;20196;-68
2020/12/16 03:29:38;;;;;;;32.72;12.88;;;9.00;99.90;;;9.56;92.61;101354.44;5070451;28;20192;-68
2020/12/16 03:32:27;;;;;;;32.22;12.65;;;9.00;99.90;;;9.57;93.05;101358.78;5087618;28;20192;-68
2020/12/16 03:35:03;;;;;;;36.83;12.70;;;9.10;99.90;;;9.57;93.03;101369.25;5070817;28;20210;-69
2020/12/16 03:37:29;;;;;;;33.00;12.57;;;9.00;99.90;;;9.57;93.00;101369.25;5070599;28;20226;-68
2020/12/16 03:39:56;;;;;;;33.25;12.43;;;9.00;99.90;;;9.57;92.99;101368.38;5069857;28;20266;-68
2020/12/16 03:42:29;;;;;;;32.60;13.43;;;9.00;99.90;;;9.57;92.96;101374.47;5087487;28;20674;-68
2020/12/16 03:44:56;;;;;;;33.40;12.60;;;9.00;99.90;;;9.58;93.51;101370.94;5070409;28;20183;-69
2020/12/16 03:47:22;;;;;;;32.00;12.18;;;9.10;99.90;;;9.61;93.33;101380.47;5087122;28;20200;-68
2020/12/16 03:49:51;;;;;;;36.25;13.07;;;9.10;99.90;;;9.59;93.47;101372.69;5071388;28;20242;-68
2020/12/16 03:52:17;;;;;;;34.30;12.82;;;9.10;99.90;;;9.60;93.60;101379.63;5070808;28;20211;-69
2020/12/16 03:54:54;;;;;;;41.13;12.55;;;9.10;99.90;;;9.63;93.74;101379.53;5070787;28;20184;-68
2020/12/16 03:57:53;;;;;;;32.30;11.90;;;9.10;99.90;;;9.67;93.97;101375.97;5070085;28;20603;-67
2020/12/16 04:00:47;;;;;;;36.30;12.63;;;9.10;99.90;;;9.68;93.86;101382.91;5069979;28;20220;-68
2020/12/16 04:03:13;;;;;;;34.40;13.25;;;9.10;99.90;;;9.67;93.89;101391.66;5070383;28;20192;-68
2020/12/16 04:05:50;;;;;;;34.30;13.23;;;9.20;99.90;;;9.67;93.86;101391.66;5086898;28;20730;-68
2020/12/16 04:08:18;;;;;;;34.40;12.73;;;9.20;99.90;;;9.68;94.03;101401.19;5069211;28;20199;-68
2020/12/16 04:11:11;;;;;;;31.85;13.27;;;9.20;99.90;;;9.72;94.12;101394.16;5069843;28;20216;-68
2020/12/16 04:13:41;;;;;;;33.17;13.13;;;9.20;99.90;;;9.70;94.13;101388.97;5086840;28;20234;-69
2020/12/16 04:16:13;;;;;;;32.63;11.82;;;9.20;99.90;;;9.72;93.98;101392.41;5071301;28;20192;-68
2020/12/16 04:18:40;;;;;;;30.30;12.38;;;9.20;99.90;;;9.72;94.08;101383.69;5070050;28;20660;-68
2020/12/16 04:21:09;;;;;;;28.23;12.38;;;9.20;99.90;;;9.73;93.79;101393.25;5086761;28;20583;-67
2020/12/16 04:23:36;;;;;;;33.17;12.85;;;9.20;99.90;;;9.76;94.17;101401.88;5071268;28;20188;-68
2020/12/16 04:26:25;;;;;;;32.13;12.13;;;9.30;99.90;;;9.78;94.02;101405.31;5086630;28;20207;-68
2020/12/16 04:28:54;;;;;;;29.42;11.70;;;9.30;99.90;;;9.79;94.11;101407.06;5086482;28;20192;-68
2020/12/16 04:31:20;;;;;;;28.55;12.30;;;9.30;99.90;;;9.80;93.83;101402.66;5071162;28;20219;-68
2020/12/16 04:33:47;;;;;;;35.63;12.77;;;9.30;99.90;;;9.79;94.04;101407.06;5086352;28;20257;-68
2020/12/16 04:36:13;;;;;;;31.10;11.77;;;9.30;99.90;;;9.79;93.64;101401.81;5069765;28;20188;-68
2020/12/16 04:38:40;;;;;;;28.45;12.32;;;9.30;99.90;;;9.77;93.50;101403.63;5086127;28;20570;-68
2020/12/16 04:41:07;;;;;;;30.85;12.45;;;9.30;99.90;;;9.77;93.79;101403.63;5069457;28;20250;-67
2020/12/16 04:43:41;;;;;;;29.00;12.43;;;9.30;99.90;;;9.77;93.96;101410.59;5069829;28;20192;-68
2020/12/16 04:46:13;;;;;;;31.77;13.32;;;9.30;99.90;;;9.76;93.72;101422.78;5069754;28;20192;-68
2020/12/16 04:48:44;;;;;;;26.08;11.50;;;9.30;99.90;;;9.76;93.91;101419.34;5069697;28;20195;-68
2020/12/16 04:51:24;;;;;;;29.60;11.88;;;9.30;99.90;;;9.74;93.92;101427.22;5069673;28;20238;-68
2020/12/16 04:53:54;;;;;;;30.92;11.95;;;9.30;99.90;;;9.71;93.63;101427.25;5086534;28;20188;-68
2020/12/16 04:56:30;;;;;;;31.75;12.50;;;9.30;99.90;;;9.72;94.02;101428.13;5069868;28;20234;-67
2020/12/16 04:59:04;;;;;;;33.25;11.23;;;9.20;99.90;;;9.71;93.73;101434.25;5069423;28;20195;-67
2020/12/16 05:01:40;;;;;;;30.60;12.00;;;9.20;99.90;;;9.69;93.98;101431.69;5086618;28;20735;-67
2020/12/16 05:04:09;;;;;;;29.13;11.95;;;9.20;99.90;;;9.66;93.83;101434.34;5070172;28;20192;-67
2020/12/16 05:06:44;;;;;;;28.80;11.82;;;9.20;99.90;;;9.66;94.10;101434.34;5097856;28;20241;-69
2020/12/16 05:09:14;;;;;;;30.75;12.35;;;9.20;99.90;;;9.66;94.04;101431.72;5077969;28;20188;-68
2020/12/16 05:11:43;;;;;;;30.17;12.48;;;9.20;99.90;;;9.68;94.16;101440.41;5086034;28;20216;-67
2020/12/16 05:14:17;;;;;;;32.03;12.52;;;9.20;99.90;;;9.71;94.31;101456.00;5055002;28;20677;-68
2020/12/16 05:16:56;;;;;;;28.77;11.95;;;9.20;99.90;;;9.73;94.11;101454.22;5070027;28;20251;-67
2020/12/16 05:19:36;;;;;;;31.15;12.82;;;9.20;99.90;;;9.74;94.07;101461.19;5054299;28;20720;-68
2020/12/16 05:22:28;;;;;;;31.02;12.38;;;9.30;99.90;;;9.78;94.15;101461.94;5053182;28;20216;-68
2020/12/16 05:24:56;;;;;;;32.15;13.35;;;9.30;99.90;;;9.77;93.93;101466.34;5054761;28;20603;-68
2020/12/16 05:27:25;;;;;;;30.48;13.25;;;9.30;99.90;;;9.75;94.08;101468.13;5055022;28;20185;-69
2020/12/16 05:29:54;;;;;;;27.75;12.57;;;9.30;99.90;;;9.76;94.06;101474.22;5054285;28;20189;-68
2020/12/16 05:32:28;;;;;;;33.00;13.15;;;9.30;99.90;;;9.78;94.18;101473.28;5059528;28;20509;-68
2020/12/16 05:34:58;;;;;;;30.98;12.10;;;9.30;99.90;;;9.78;94.04;101477.63;5074106;28;20200;-69
2020/12/16 05:37:33;;;;;;;34.10;13.50;;;9.30;99.90;;;9.79;93.86;101480.25;5074635;28;20200;-68
2020/12/16 05:40:11;;;;;;;29.50;12.75;;;9.30;99.90;;;9.81;93.80;101478.44;5073457;28;20303;-68
2020/12/16 05:42:38;;;;;;;38.40;14.55;;;9.30;99.90;;;9.82;94.10;101482.78;5089774;28;20287;-68
2020/12/16 05:45:13;;;;;;;33.75;12.65;;;9.30;99.90;;;9.83;93.57;101478.38;5072987;28;20189;-68
2020/12/16 05:47:55;;;;;;;32.72;12.50;;;9.30;99.90;;;9.81;93.80;101483.66;5072488;28;20656;-69
2020/12/16 05:50:21;;;;;;;32.35;11.45;;;9.30;99.90;;;9.79;93.76;101495.91;5067681;28;20605;-68
2020/12/16 05:52:48;;;;;;;28.40;11.75;;;9.30;99.90;;;9.79;93.78;101506.38;5074292;28;20180;-68
2020/12/16 05:55:32;;;;;;;29.75;12.07;;;9.30;99.90;;;9.78;94.01;101501.16;5073615;28;20196;-68
2020/12/16 05:58:08;;;;;;;34.35;12.18;;;9.30;99.90;;;9.76;93.85;101508.19;5073800;28;20191;-68
2020/12/16 06:00:47;;;;;;;31.10;13.10;;;9.30;99.90;;;9.75;93.84;101503.84;5074442;28;20582;-67
2020/12/16 06:03:23;;;;;;;32.40;12.38;;;9.30;99.90;;;9.73;93.79;101498.66;5073517;28;20266;-69
2020/12/16 06:05:53;;;;;;;30.05;12.52;;;9.30;99.90;;;9.71;93.96;101507.44;5073979;28;20180;-68
2020/12/16 06:08:22;;;;;;;29.17;11.73;;;9.30;99.90;;;9.71;93.87;101510.03;5072252;28;20191;-67
2020/12/16 06:10:51;;;;;;;31.15;12.70;;;9.30;99.90;;;9.72;94.13;101511.75;5073519;28;20727;-68
2020/12/16 06:13:20;;;;;;;33.17;12.55;;;9.30;99.90;;;9.73;93.97;101516.06;5067018;28;20297;-68
2020/12/16 06:15:59;;;;;;;29.77;11.63;;;9.30;99.90;;;9.75;94.07;101520.38;5073440;28;20203;-68
2020/12/16 06:18:30;;;;;;;29.05;11.52;;;9.30;99.90;;;9.77;93.95;101520.34;5072229;28;20214;-68
2020/12/16 06:20:58;;;;;;;32.78;12.70;;;9.30;99.90;;;9.76;94.01;101522.09;5073711;28;20257;-69
2020/12/16 06:23:34;;;;;;;32.25;12.57;;;9.30;99.90;;;9.74;93.88;101509.97;5073757;28;20536;-67
2020/12/16 06:26:03;;;;;;;33.58;12.88;;;9.30;99.90;;;9.76;94.07;101516.88;5071922;28;20192;-68
2020/12/16 06:28:29;;;;;;;33.38;12.93;;;9.30;99.90;;;9.77;94.05;101523.84;5073062;28;20257;-68
2020/12/16 06:31:09;;;;;;;28.88;11.82;;;9.30;99.90;;;9.78;94.21;101524.69;5073782;28;20212;-68
2020/12/16 06:33:42;;;;;;;34.83;12.60;;;9.30;99.90;;;9.80;94.04;101526.38;5088942;28;20192;-68
2020/12/16 06:36:11;;;;;;;36.90;13.57;;;9.30;99.90;;;9.84;94.08;101530.66;5073350;28;20188;-68
2020/12/16 06:38:44;;;;;;;32.65;12.70;;;9.40;99.90;;;9.84;94.05;101535.88;5071889;28;20621;-68
2020/12/16 06:41:20;;;;;;;31.83;12.70;;;9.40;99.90;;;9.85;93.99;101534.97;5071591;28;20224;-68
2020/12/16 06:43:48;;;;;;;29.60;12.55;;;9.40;99.90;;;9.87;93.89;101540.19;5088798;28;20644;-68
2020/12/16 06:46:39;;;;;;;35.20;13.20;;;9.40;99.90;;;9.89;94.02;101544.50;5088448;28;20192;-68
2020/12/16 06:49:09;;;;;;;31.67;12.00;;;9.40;99.90;;;9.90;93.84;101540.97;5070555;28;20303;-69
2020/12/16 06:51:44;;;;;;;35.63;13.27;;;9.40;99.90;;;9.90;94.00;101551.44;5088489;28;20212;-67
2020/12/16 06:54:13;;;;;;;32.17;12.43;;;9.40;99.90;;;9.87;93.57;101551.50;5072829;28;20188;-68
2020/12/16 06:56:41;;;;;;;31.05;12.48;;;9.40;99.90;;;9.87;93.57;101554.13;5072003;28;20184;-68
2020/12/16 06:59:07;;;;;;;32.47;11.43;;;9.40;99.90;;;9.86;93.38;101555.00;5072213;28;20184;-66
2020/12/16 07:01:34;;;;;;;31.42;12.25;;;9.40;99.90;;;9.88;93.75;101562.78;5073241;28;20220;-66
2020/12/16 07:04:01;;;;;;;33.97;12.85;;;9.40;99.90;;;9.91;93.51;101560.16;5072709;28;20555;-68
2020/12/16 07:06:40;;;;;;;31.83;11.55;;;9.40;99.90;;;9.94;93.62;101568.78;5072453;28;20180;-68
2020/12/16 07:09:17;;;;;;;33.10;11.93;;;9.50;99.90;;;9.93;93.59;101572.28;5071647;28;20297;-69
2020/12/16 07:11:45;;;;;;;29.17;11.80;;;9.50;99.90;;;9.93;93.15;101571.41;5105237;28;20294;-68
2020/12/16 07:14:15;;;;;;;33.08;12.02;;;9.50;99.90;;;9.93;93.21;101577.50;5087960;28;20207;-68
2020/12/16 07:16:42;;;;;;;29.02;12.73;;;9.50;99.90;;;9.96;93.32;101573.97;5071045;28;20192;-68
2020/12/16 07:19:14;;;;;;;38.40;14.15;;;9.50;99.90;;;9.98;93.00;101583.50;5073198;28;20524;-66
2020/12/16 07:21:42;;;;;;;32.40;13.52;;;9.50;99.90;;;10.00;93.00;101588.69;5072285;28;20212;-70
2020/12/16 07:24:13;;;;;;;34.13;11.85;;;9.50;99.90;;;10.02;92.98;101586.91;5072478;28;20294;-68
2020/12/16 07:26:43;;;;;;;30.92;11.80;;;9.50;99.90;;;10.04;92.58;101587.75;5072263;28;20199;-68
2020/12/16 07:29:26;;;;;;;30.55;12.07;;;9.50;99.90;;;10.00;92.53;101589.56;5071121;28;20199;-68
2020/12/16 07:32:05;;;;;;;30.40;11.63;;;9.50;99.90;;;10.01;92.50;101600.88;5072058;28;20204;-70
2020/12/16 07:34:34;;;;;;;23.55;9.48;;;9.50;99.90;;;10.03;92.35;101597.34;5070844;28;20210;-69
2020/12/16 07:37:04;;;;;;;23.75;10.20;;;9.50;99.90;;;10.06;92.08;101593.81;5087737;28;20195;-70
2020/12/16 07:39:32;;;;;;;29.13;11.50;;;9.60;99.90;;;10.09;91.88;101592.03;5067317;28;20556;-68
2020/12/16 07:42:01;;;;;;;30.23;10.57;;;9.60;99.90;;;10.13;91.66;101589.34;5070611;28;20231;-68
2020/12/16 07:44:27;;;;;;;30.08;10.98;;;9.60;99.90;;;10.16;91.17;101594.50;5072300;28;20237;-68
2020/12/16 07:47:01;;;;;;;30.27;10.50;;;9.60;99.90;;;10.18;91.10;101587.47;5071873;28;20188;-68
2020/12/16 07:49:29;;;;;;;25.88;10.43;;;9.60;99.90;;;10.18;90.73;101590.09;5071612;28;20733;-68
2020/12/16 07:52:02;;;;;;;30.00;11.68;;;9.60;99.90;;;10.20;90.85;101593.56;5072026;28;20645;-68
2020/12/16 07:54:29;;;;;;;27.17;11.13;;;9.70;99.90;;;10.19;90.45;101590.06;5073272;28;20238;-69
2020/12/16 07:56:55;;;;;;;30.17;10.82;;;9.70;99.90;;;10.20;90.33;101593.56;5083120;28;20188;-68
2020/12/16 07:59:29;;;;;;;23.00;9.32;;;9.70;99.90;;;10.22;90.41;101586.50;5083599;28;20776;-67
2020/12/16 08:02:11;;;;;;;24.45;10.80;;;9.70;99.90;;;10.25;90.34;101599.53;5079963;28;20220;-69
2020/12/16 08:04:43;;;;;;;26.50;11.18;;;9.80;99.90;;;10.27;90.20;101592.50;5071929;28;20188;-68
2020/12/16 08:07:16;;;;;;;27.10;10.63;;;9.80;99.90;;;10.30;89.74;101595.06;5071516;28;20188;-68
2020/12/16 08:09:53;;;;;;;25.38;9.48;;;9.80;99.90;;;10.32;89.31;101593.25;5071484;28;20238;-71
2020/12/16 08:12:21;;;;;;;20.90;8.88;;;9.90;99.90;;;10.34;88.97;101597.56;5071457;28;20757;-69
2020/12/16 08:14:48;;;;;;;25.55;8.52;;;9.90;99.90;;;10.34;88.93;101601.94;5070585;28;20559;-68
2020/12/16 08:17:15;;;;;;;20.75;8.70;;;9.90;99.90;;;10.36;88.61;101594.91;5103458;28;20191;-69
2020/12/16 08:19:41;;;;;;;18.13;7.90;;;9.90;99.90;;;10.37;88.16;101602.72;5070943;28;20499;-68
2020/12/16 08:22:16;;;;;;;23.95;8.38;;;9.90;99.90;;;10.36;88.34;101602.75;5071115;28;20716;-66
2020/12/16 08:24:58;;;;;;;23.67;8.10;;;9.90;99.90;;;10.37;87.62;101602.72;5069849;28;20599;-68
2020/12/16 08:27:24;;;;;;;20.15;7.45;;;9.90;99.90;;;10.40;87.73;101589.56;5071338;28;20652;-68
2020/12/16 08:29:52;;;;;;;20.65;7.72;;;10.00;99.90;;;10.45;87.04;101602.56;5069545;28;20200;-68
2020/12/16 08:32:30;;;;;;;18.00;6.68;;;10.00;99.90;;;10.46;86.76;101610.38;5071284;28;20714;-70
2020/12/16 08:35:00;;;;;;;20.88;7.40;;;10.00;99.90;;;10.48;86.46;101613.84;5069877;28;20629;-70
2020/12/16 08:37:28;;;;;;;28.75;9.38;;;10.10;99.90;;;10.50;86.28;101609.41;5086689;28;20192;-68
2020/12/16 08:39:56;;;;;;;21.38;8.07;;;10.10;99.90;;;10.53;85.98;101611.97;5070827;28;20208;-71
2020/12/16 08:42:25;;;;;;;21.75;7.93;;;10.10;99.90;;;10.56;85.78;101616.25;5070728;28;20585;-68
2020/12/16 08:44:51;;;;;;;20.52;8.15;;;10.10;99.90;;;10.59;85.68;101617.06;5071079;28;20192;-69
2020/12/16 08:47:25;;;;;;;21.27;8.82;;;10.10;99.90;;;10.59;85.38;101618.81;5071039;28;20192;-68
2020/12/16 08:49:53;;;;;;;23.55;9.95;;;10.20;99.90;;;10.60;85.35;101617.94;5070963;28;20195;-69
2020/12/16 08:52:19;;;;;;;22.50;9.48;;;10.20;99.90;;;10.63;85.49;101623.94;5071505;28;20211;-68
2020/12/16 08:54:46;;;;;;;24.23;10.18;;;10.20;99.90;;;10.66;85.45;101618.63;5069818;28;20192;-70
2020/12/16 08:57:12;;;;;;;24.35;10.23;;;10.30;99.90;;;10.69;85.47;101620.31;5071192;28;20246;-68
2020/12/16 08:59:39;;;;;;;23.63;9.38;;;10.30;99.90;;;10.72;85.03;101623.72;5069946;28;20192;-70
2020/12/16 09:02:09;;;;;;;24.58;9.68;;;10.30;99.90;;;10.73;85.20;101627.22;5070866;28;20215;-69
2020/12/16 09:04:39;;;;;;;21.52;8.90;;;10.30;99.90;;;10.75;85.10;101628.88;5071275;28;20653;-69
2020/12/16 09:07:09;;;;;;;21.45;9.15;;;10.30;99.90;;;10.75;84.75;101623.63;5070694;28;20180;-68
2020/12/16 09:09:40;;;;;;;23.15;9.70;;;10.40;99.90;;;10.79;84.75;101627.06;5070063;28;20604;-71
2020/12/16 09:12:13;;;;;;;21.63;8.73;;;10.40;99.90;;;10.82;84.52;101620.00;5069023;28;20211;-70
2020/12/16 09:14:47;;;;;;;18.83;8.00;;;10.40;99.90;;;10.83;84.15;101621.72;5070625;28;20192;-68
2020/12/16 09:17:14;;;;;;;20.13;7.55;;;10.40;99.90;;;10.84;83.80;101622.56;5070187;28;20184;-69
2020/12/16 09:19:41;;;;;;;16.67;6.07;;;10.40;99.90;;;10.83;83.27;101626.97;5070239;28;20188;-69
2020/12/16 09:22:08;;;;;;;18.25;7.30;;;10.40;99.90;;;10.83;82.71;101618.25;5070593;28;20657;-69
2020/12/16 09:24:34;;;;;;;18.40;7.00;;;10.30;99.90;;;10.81;82.16;101620.03;5071003;28;20180;-69
2020/12/16 09:27:07;;;;;;;17.02;6.60;;;10.30;99.90;;;10.81;82.12;101622.66;5071138;28;20184;-68
2020/12/16 09:29:42;;;;;;;18.17;7.28;;;10.40;99.90;;;10.83;82.18;101628.72;5071883;28;20188;-69
2020/12/16 09:32:11;;;;;;;18.05;7.03;;;10.40;99.90;;;10.83;82.14;101626.09;5071442;28;20214;-67
2020/12/16 09:34:40;;;;;;;19.80;7.85;;;10.40;99.90;;;10.85;82.15;101633.00;5071096;28;20181;-68
2020/12/16 09:37:15;;;;;;;18.88;7.55;;;10.50;99.90;;;10.82;82.41;101640.06;5069528;28;20275;-68
2020/12/16 09:39:42;;;;;;;18.35;7.63;;;10.50;99.90;;;10.82;82.59;101642.69;5070273;28;20180;-68
2020/12/16 09:42:10;;;;;;;21.35;8.32;;;10.50;99.90;;;10.82;82.55;101648.78;5068955;28;20294;-69
2020/12/16 09:44:39;;;;;;;16.45;6.70;;;10.50;99.90;;;10.84;82.51;101644.38;5069321;28;20196;-70
2020/12/16 09:47:15;;;;;;;15.63;6.82;;;10.50;99.90;;;10.88;82.56;101648.66;5070075;28;20196;-68
2020/12/16 09:49:42;;;;;;;18.70;7.75;;;10.50;99.90;;;10.89;82.10;101652.13;5070260;28;20188;-70
2020/12/16 09:52:29;;;;;;;20.58;8.20;;;10.50;99.90;;;10.90;81.92;101653.84;5069380;28;20754;-68
2020/12/16 09:54:56;;;;;;;20.48;8.18;;;10.50;99.90;;;10.92;82.19;101652.03;5074191;28;20211;-69
2020/12/16 09:57:23;;;;;;;21.85;9.27;;;10.50;99.90;;;10.95;82.16;101658.06;5074138;28;20188;-69
2020/12/16 09:59:51;;;;;;;19.88;8.10;;;10.60;99.90;;;10.96;81.96;101653.69;5086328;28;20585;-68
2020/12/16 10:02:19;;;;;;;18.80;7.75;;;10.60;99.90;;;10.98;82.13;101657.16;5073801;28;20208;-71
2020/12/16 10:04:46;;;;;;;19.80;8.60;;;10.60;99.90;;;11.01;81.76;101652.69;5074086;28;20180;-67
2020/12/16 10:07:12;;;;;;;18.77;8.50;;;10.60;99.90;;;11.04;82.17;101662.22;5072468;28;20195;-69
2020/12/16 10:09:52;;;;;;;20.05;8.82;;;10.60;99.90;;;11.02;82.09;101659.66;5073813;28;20180;-68
2020/12/16 10:12:19;;;;;;;18.60;8.00;;;10.60;99.90;;;11.02;82.04;101658.78;5074365;28;20211;-67
2020/12/16 10:14:45;;;;;;;19.67;7.60;;;10.70;99.90;;;11.04;82.00;101651.75;5073661;28;20249;-68
2020/12/16 10:17:12;;;;;;;20.15;7.93;;;10.70;99.90;;;11.06;82.02;101653.44;5072884;28;20193;-68
2020/12/16 10:19:39;;;;;;;19.00;8.07;;;10.70;99.90;;;11.07;81.78;101662.16;5073904;28;20261;-69
2020/12/16 10:22:05;;;;;;;23.33;8.65;;;10.60;99.90;;;11.04;81.98;101647.38;5073936;28;20277;-70
2020/12/16 10:24:31;;;;;;;21.50;8.50;;;10.70;99.90;;;11.06;81.96;101661.31;5073533;28;20192;-70
2020/12/16 10:27:01;;;;;;;18.92;8.27;;;10.70;99.90;;;11.04;82.03;101655.25;5074258;28;20202;-69